Time;durP1;ratioP1;P1;durP2;ratioP2;P2;SDS_P1;SDS_P2;PMS_P1;PMS_P2;Temp;Humidity;BMP_temperature;BMP_pressure;BME280_temperature;BME280_humidity;BME280_pressure;Samples;Min_cycle;Max_cycle;Signal;HPM_P1;HPM_P2
2022/07/08 00:01:54;;;;;;;3.13;0.90;;;;;;;;;;4998716;28;20880;-60
2022/07/08 00:04:22;;;;;;;2.33;0.80;;;;;;;;;;4997770;28;20258;-59
2022/07/08 00:06:50;;;;;;;1.97;0.70;;;;;;;;;;4997838;28;20225;-60
2022/07/08 00:09:18;;;;;;;3.03;1.03;;;;;;;;;;4997669;28;20255;-60
2022/07/08 00:11:46;;;;;;;1.80;1.00;;;;;;;;;;4997675;28;20247;-60
2022/07/08 00:14:16;;;;;;;0.80;0.80;;;;;;;;;;4997800;28;20236;-59
2022/07/08 00:16:44;;;;;;;3.40;0.80;;;;;;;;;;4998910;28;20200;-60
2022/07/08 00:19:14;;;;;;;3.17;0.90;;;;;;;;;;4999033;28;20299;-60
2022/07/08 00:21:43;;;;;;;1.00;0.90;;;;;;;;;;4999408;28;20680;-58
2022/07/08 00:24:11;;;;;;;1.27;0.93;;;;;;;;;;5014839;28;20295;-60
2022/07/08 00:26:39;;;;;;;1.10;0.77;;;;;;;;;;4999404;28;20248;-60
2022/07/08 00:29:08;;;;;;;1.73;0.73;;;;;;;;;;4999609;28;20209;-58
2022/07/08 00:31:37;;;;;;;1.73;1.00;;;;;;;;;;5006481;28;20293;-60
2022/07/08 00:34:05;;;;;;;0.70;0.70;;;;;;;;;;5015878;28;20219;-59
2022/07/08 00:36:35;;;;;;;0.90;0.90;;;;;;;;;;5010932;28;20192;-59
2022/07/08 00:39:03;;;;;;;0.97;0.87;;;;;;;;;;5010296;28;20197;-60
2022/07/08 00:41:31;;;;;;;1.20;1.00;;;;;;;;;;5010141;28;20259;-59
2022/07/08 00:43:59;;;;;;;1.60;0.93;;;;;;;;;;5010366;28;20250;-59
2022/07/08 00:46:28;;;;;;;0.70;0.70;;;;;;;;;;5010035;28;20271;-59
2022/07/08 00:48:57;;;;;;;1.20;0.90;;;;;;;;;;5012632;28;20201;-59
2022/07/08 00:51:25;;;;;;;1.00;1.00;;;;;;;;;;5012714;28;20762;-59
2022/07/08 00:53:54;;;;;;;0.70;0.70;;;;;;;;;;5015353;28;20248;-59
2022/07/08 00:56:22;;;;;;;0.80;0.80;;;;;;;;;;5014173;28;20288;-58
2022/07/08 00:58:50;;;;;;;0.93;0.87;;;;;;;;;;5015162;28;20243;-57
2022/07/08 01:01:19;;;;;;;2.70;0.87;;;;;;;;;;5012648;28;20197;-59
2022/07/08 01:03:47;;;;;;;1.47;0.80;;;;;;;;;;5017289;28;20228;-59
2022/07/08 01:06:16;;;;;;;5.00;0.90;;;;;;;;;;5009271;28;20250;-59
2022/07/08 01:08:46;;;;;;;3.40;1.00;;;;;;;;;;5009206;28;20207;-59
2022/07/08 01:11:14;;;;;;;2.13;0.90;;;;;;;;;;5009436;28;20251;-59
2022/07/08 01:13:43;;;;;;;0.80;0.80;;;;;;;;;;5009018;28;20248;-59
2022/07/08 01:16:11;;;;;;;1.60;0.97;;;;;;;;;;5010969;28;20559;-59
2022/07/08 01:18:40;;;;;;;1.00;0.87;;;;;;;;;;5009235;28;20204;-59
2022/07/08 01:21:10;;;;;;;1.00;0.90;;;;;;;;;;5008819;28;20652;-59
2022/07/08 01:23:38;;;;;;;2.80;1.00;;;;;;;;;;5013854;28;20228;-59
2022/07/08 01:26:09;;;;;;;2.00;0.90;;;;;;;;;;5011256;28;20267;-58
2022/07/08 01:28:38;;;;;;;1.13;0.93;;;;;;;;;;5008768;28;20244;-59
2022/07/08 01:31:06;;;;;;;1.30;0.80;;;;;;;;;;5011212;28;20242;-58
2022/07/08 01:33:34;;;;;;;1.23;0.90;;;;;;;;;;5017147;28;20732;-58
2022/07/08 01:36:02;;;;;;;5.40;0.90;;;;;;;;;;5018070;28;20201;-58
2022/07/08 01:38:32;;;;;;;1.40;1.30;;;;;;;;;;4997704;28;20208;-58
2022/07/08 01:41:00;;;;;;;0.80;0.77;;;;;;;;;;4998379;28;20212;-58
2022/07/08 01:43:28;;;;;;;1.30;1.20;;;;;;;;;;4998307;28;20232;-59
2022/07/08 01:45:56;;;;;;;2.33;0.90;;;;;;;;;;5009440;28;20611;-59
2022/07/08 01:48:24;;;;;;;1.83;1.23;;;;;;;;;;5009923;28;20254;-59
2022/07/08 01:50:52;;;;;;;4.53;0.93;;;;;;;;;;5011339;28;20224;-59
2022/07/08 01:53:20;;;;;;;2.30;1.00;;;;;;;;;;5012186;28;20224;-59
2022/07/08 01:55:50;;;;;;;0.80;0.80;;;;;;;;;;5014865;28;20231;-59
2022/07/08 01:58:18;;;;;;;0.73;0.73;;;;;;;;;;5013688;28;20596;-59
2022/07/08 02:00:46;;;;;;;5.77;1.10;;;;;;;;;;5016097;28;20201;-59
2022/07/08 02:03:14;;;;;;;2.07;0.80;;;;;;;;;;5014608;28;20266;-59
2022/07/08 02:05:42;;;;;;;2.30;0.87;;;;;;;;;;5013756;28;20207;-58
2022/07/08 02:08:10;;;;;;;2.67;0.97;;;;;;;;;;5012741;28;20251;-59
2022/07/08 02:13:27;;;;;;;6.20;1.10;;;;;;;;;;4999402;28;20215;-58
2022/07/08 02:15:55;;;;;;;3.47;1.00;;;;;;;;;;5012925;28;20227;-59
2022/07/08 02:18:23;;;;;;;4.43;1.70;;;;;;;;;;5014251;28;20208;-58
2022/07/08 02:20:52;;;;;;;3.63;0.70;;;;;;;;;;5015795;28;20208;-58
2022/07/08 02:23:20;;;;;;;4.37;1.20;;;;;;;;;;5014684;28;20216;-58
2022/07/08 02:25:48;;;;;;;2.77;0.93;;;;;;;;;;5013321;28;20204;-58
2022/07/08 02:28:16;;;;;;;2.53;1.10;;;;;;;;;;5014004;28;20251;-58
2022/07/08 02:30:45;;;;;;;1.17;0.70;;;;;;;;;;5011312;28;20631;-60
2022/07/08 02:33:13;;;;;;;4.77;1.00;;;;;;;;;;5008311;28;20591;-59
2022/07/08 02:35:41;;;;;;;2.97;1.00;;;;;;;;;;5012584;28;20331;-59
2022/07/08 02:38:10;;;;;;;0.93;0.93;;;;;;;;;;4997617;28;20205;-59
2022/07/08 02:40:38;;;;;;;3.27;0.90;;;;;;;;;;4998110;28;20213;-59
2022/07/08 02:43:09;;;;;;;3.17;0.90;;;;;;;;;;5001351;28;20283;-59
2022/07/08 02:45:38;;;;;;;3.50;0.90;;;;;;;;;;5001599;28;20283;-59
2022/07/08 02:48:07;;;;;;;2.70;0.97;;;;;;;;;;5001171;28;20267;-59
2022/07/08 02:50:35;;;;;;;1.67;1.20;;;;;;;;;;5001519;28;20209;-59
2022/07/08 02:53:03;;;;;;;1.93;1.03;;;;;;;;;;5001021;28;20225;-59
2022/07/08 02:55:31;;;;;;;1.00;1.00;;;;;;;;;;5001094;28;20212;-59
2022/07/08 02:57:59;;;;;;;1.23;0.87;;;;;;;;;;5000855;28;20247;-59
2022/07/08 03:00:28;;;;;;;1.20;1.10;;;;;;;;;;5000830;28;20275;-59
2022/07/08 03:02:56;;;;;;;4.73;1.30;;;;;;;;;;5001122;28;20204;-59
2022/07/08 03:05:25;;;;;;;1.33;0.90;;;;;;;;;;5001245;28;20209;-59
2022/07/08 03:07:53;;;;;;;1.93;0.83;;;;;;;;;;5000636;28;20668;-59
2022/07/08 03:10:21;;;;;;;2.80;1.03;;;;;;;;;;5000800;28;20241;-59
2022/07/08 03:12:50;;;;;;;1.03;0.97;;;;;;;;;;5001105;28;20291;-59
2022/07/08 03:15:18;;;;;;;5.53;1.10;;;;;;;;;;5000845;28;20255;-59
2022/07/08 03:17:46;;;;;;;2.50;0.83;;;;;;;;;;5000759;28;20249;-59
2022/07/08 03:20:14;;;;;;;2.47;1.00;;;;;;;;;;5000904;28;20272;-59
2022/07/08 03:22:43;;;;;;;3.47;1.10;;;;;;;;;;5001504;28;20273;-59
2022/07/08 03:25:11;;;;;;;2.20;1.00;;;;;;;;;;5011492;28;20263;-59
2022/07/08 03:27:39;;;;;;;4.13;0.97;;;;;;;;;;5000622;28;20268;-59
2022/07/08 03:30:08;;;;;;;1.67;0.80;;;;;;;;;;5000907;28;20216;-59
2022/07/08 03:32:35;;;;;;;1.47;0.87;;;;;;;;;;5008055;28;20251;-59
2022/07/08 03:35:04;;;;;;;2.23;0.87;;;;;;;;;;5013495;28;20559;-59
2022/07/08 03:37:32;;;;;;;3.33;1.13;;;;;;;;;;4999814;28;20205;-59
2022/07/08 03:41:19;;;;;;;1.20;1.00;;;;;;;;;;5000137;28;20240;-59
2022/07/08 03:42:49;;;;;;;1.23;1.00;;;;;;;;;;5000017;28;20248;-59
2022/07/08 03:45:17;;;;;;;1.20;0.90;;;;;;;;;;5011355;28;20202;-57
2022/07/08 03:47:45;;;;;;;3.50;0.90;;;;;;;;;;5008913;28;20292;-58
2022/07/08 03:50:13;;;;;;;1.23;0.90;;;;;;;;;;5016047;28;20270;-58
2022/07/08 03:52:45;;;;;;;3.23;0.93;;;;;;;;;;5012570;28;20201;-58
2022/07/08 03:55:14;;;;;;;3.13;1.07;;;;;;;;;;5000628;28;20245;-58
2022/07/08 03:57:42;;;;;;;2.00;1.10;;;;;;;;;;4999751;28;20240;-58
2022/07/08 04:00:11;;;;;;;1.70;1.03;;;;;;;;;;4999262;28;20252;-58
2022/07/08 04:02:38;;;;;;;6.90;1.40;;;;;;;;;;5002232;28;20200;-58
2022/07/08 04:05:07;;;;;;;1.73;1.13;;;;;;;;;;5009181;28;20323;-58
2022/07/08 04:07:35;;;;;;;2.67;1.40;;;;;;;;;;5018201;28;20255;-58
2022/07/08 04:10:04;;;;;;;4.80;1.20;;;;;;;;;;5017228;28;20204;-58
2022/07/08 04:12:33;;;;;;;0.70;0.70;;;;;;;;;;5010252;28;20200;-58
2022/07/08 04:15:01;;;;;;;5.20;1.10;;;;;;;;;;5008740;28;20221;-58
2022/07/08 04:17:29;;;;;;;1.07;0.90;;;;;;;;;;5011671;28;20652;-58
2022/07/08 04:19:57;;;;;;;1.53;1.03;;;;;;;;;;5012039;28;20204;-58
2022/07/08 04:22:25;;;;;;;2.73;0.90;;;;;;;;;;5010502;28;20667;-59
2022/07/08 04:24:53;;;;;;;1.63;1.20;;;;;;;;;;5010831;28;20224;-58
2022/07/08 04:27:21;;;;;;;1.53;1.07;;;;;;;;;;5008455;28;20225;-59
2022/07/08 04:29:50;;;;;;;4.60;0.83;;;;;;;;;;5013114;28;20239;-59
2022/07/08 04:32:18;;;;;;;4.00;1.10;;;;;;;;;;5003048;28;20232;-59
2022/07/08 04:34:47;;;;;;;1.93;0.77;;;;;;;;;;5011059;28;20257;-58
2022/07/08 04:37:15;;;;;;;4.03;1.23;;;;;;;;;;5010442;28;20205;-59
2022/07/08 04:39:43;;;;;;;2.80;1.20;;;;;;;;;;5009131;28;20728;-59
2022/07/08 04:42:11;;;;;;;2.10;1.00;;;;;;;;;;5004796;28;20243;-58
2022/07/08 04:44:39;;;;;;;2.10;1.30;;;;;;;;;;5001928;28;20220;-59
2022/07/08 04:47:08;;;;;;;2.53;1.20;;;;;;;;;;4998835;28;20237;-58
2022/07/08 04:49:36;;;;;;;2.83;1.10;;;;;;;;;;5003150;28;20287;-58
2022/07/08 04:52:06;;;;;;;4.30;1.10;;;;;;;;;;5010137;28;20315;-58
2022/07/08 04:54:35;;;;;;;5.07;1.10;;;;;;;;;;5008958;28;20220;-58
2022/07/08 04:57:03;;;;;;;3.43;1.10;;;;;;;;;;5011399;28;21234;-58
2022/07/08 04:59:31;;;;;;;1.03;1.00;;;;;;;;;;5004121;28;20276;-58
2022/07/08 05:01:59;;;;;;;4.57;1.17;;;;;;;;;;5000511;28;20209;-59
2022/07/08 05:04:28;;;;;;;1.83;0.90;;;;;;;;;;5014935;28;20257;-58
2022/07/08 05:06:56;;;;;;;2.37;1.00;;;;;;;;;;5011354;28;20209;-59
2022/07/08 05:09:24;;;;;;;1.53;0.90;;;;;;;;;;5017999;28;20262;-59
2022/07/08 05:11:52;;;;;;;2.50;1.40;;;;;;;;;;5008239;28;20228;-59
2022/07/08 05:14:20;;;;;;;2.50;1.10;;;;;;;;;;5010253;28;20252;-58
2022/07/08 05:16:48;;;;;;;1.80;1.10;;;;;;;;;;5001606;28;20236;-58
2022/07/08 05:19:16;;;;;;;4.57;1.20;;;;;;;;;;5005560;28;20558;-59
2022/07/08 05:21:46;;;;;;;0.90;0.87;;;;;;;;;;5009659;28;20224;-58
2022/07/08 05:24:14;;;;;;;1.00;0.90;;;;;;;;;;5009928;28;20272;-59
2022/07/08 05:26:41;;;;;;;2.00;1.10;;;;;;;;;;5001900;28;20240;-58
2022/07/08 05:29:09;;;;;;;1.57;1.10;;;;;;;;;;5008858;28;20251;-59
2022/07/08 05:31:37;;;;;;;1.37;1.23;;;;;;;;;;5012866;28;20216;-59
2022/07/08 05:34:05;;;;;;;2.77;1.40;;;;;;;;;;5011593;28;20562;-58
2022/07/08 05:36:33;;;;;;;4.60;1.50;;;;;;;;;;4996250;28;20213;-58
2022/07/08 05:39:03;;;;;;;2.17;1.30;;;;;;;;;;4999551;28;20208;-58
2022/07/08 05:41:31;;;;;;;1.60;0.97;;;;;;;;;;4996209;28;20217;-58
2022/07/08 05:44:05;;;;;;;1.10;1.03;;;;;;;;;;4996566;28;20237;-58
2022/07/08 05:46:34;;;;;;;2.77;1.17;;;;;;;;;;4996599;28;20209;-58
2022/07/08 05:49:02;;;;;;;2.97;1.30;;;;;;;;;;4997241;28;20236;-58
2022/07/08 05:51:30;;;;;;;1.77;1.20;;;;;;;;;;4998118;28;20620;-58
2022/07/08 05:53:58;;;;;;;3.80;1.23;;;;;;;;;;4997502;28;20759;-58
2022/07/08 05:56:27;;;;;;;1.70;1.00;;;;;;;;;;4996695;28;20596;-58
2022/07/08 05:59:01;;;;;;;1.63;1.10;;;;;;;;;;4996096;28;20244;-58
2022/07/08 06:01:29;;;;;;;1.20;1.10;;;;;;;;;;4996769;28;20209;-59
2022/07/08 06:03:57;;;;;;;1.93;1.20;;;;;;;;;;4997534;28;20228;-58
2022/07/08 06:06:25;;;;;;;2.63;1.00;;;;;;;;;;4997469;28;20683;-58
2022/07/08 06:08:53;;;;;;;3.20;1.37;;;;;;;;;;5003746;28;20722;-58
2022/07/08 06:11:21;;;;;;;3.07;1.17;;;;;;;;;;5017397;28;20246;-58
2022/07/08 06:13:50;;;;;;;3.63;1.33;;;;;;;;;;5017528;28;20232;-58
2022/07/08 06:16:18;;;;;;;3.37;1.20;;;;;;;;;;5019008;28;20235;-58
2022/07/08 06:18:46;;;;;;;5.50;1.80;;;;;;;;;;5021514;28;20216;-58
2022/07/08 06:21:14;;;;;;;3.27;1.50;;;;;;;;;;5011187;28;20687;-58
2022/07/08 06:23:43;;;;;;;4.30;1.20;;;;;;;;;;5002204;28;20232;-58
2022/07/08 06:26:11;;;;;;;6.03;1.23;;;;;;;;;;5001812;28;20244;-58
2022/07/08 06:28:39;;;;;;;2.80;1.30;;;;;;;;;;5001812;28;20310;-58
2022/07/08 06:31:08;;;;;;;2.70;1.43;;;;;;;;;;5004647;28;20200;-58
2022/07/08 06:33:37;;;;;;;4.60;1.20;;;;;;;;;;5012992;28;20224;-58
2022/07/08 06:36:05;;;;;;;5.50;1.33;;;;;;;;;;5006300;28;20213;-58
2022/07/08 06:38:33;;;;;;;1.50;1.27;;;;;;;;;;5001395;28;20963;-57
2022/07/08 06:41:01;;;;;;;3.07;1.20;;;;;;;;;;5018100;28;20204;-58
2022/07/08 06:43:29;;;;;;;5.33;1.30;;;;;;;;;;5017160;28;20229;-57
2022/07/08 06:45:57;;;;;;;6.20;1.40;;;;;;;;;;5014980;28;20294;-55
2022/07/08 06:48:27;;;;;;;1.77;1.23;;;;;;;;;;5011825;28;20230;-57
2022/07/08 06:50:55;;;;;;;2.90;1.30;;;;;;;;;;5015420;28;20274;-57
2022/07/08 06:53:25;;;;;;;1.17;1.10;;;;;;;;;;5011586;28;20216;-57
2022/07/08 06:55:53;;;;;;;1.30;0.90;;;;;;;;;;5012014;28;20610;-56
2022/07/08 06:58:21;;;;;;;2.13;0.93;;;;;;;;;;5011853;28;20635;-56
2022/07/08 07:00:49;;;;;;;3.83;1.40;;;;;;;;;;5013213;28;20224;-56
2022/07/08 07:03:17;;;;;;;3.87;1.40;;;;;;;;;;5011106;28;20720;-57
2022/07/08 07:05:46;;;;;;;3.37;1.27;;;;;;;;;;5013541;28;20228;-57
2022/07/08 07:08:14;;;;;;;2.30;1.37;;;;;;;;;;5010914;28;20726;-57
2022/07/08 07:10:42;;;;;;;1.70;1.17;;;;;;;;;;5011442;28;20259;-58
2022/07/08 07:13:14;;;;;;;3.33;1.47;;;;;;;;;;5013905;28;20223;-58
2022/07/08 07:15:42;;;;;;;1.57;1.20;;;;;;;;;;5011550;28;20205;-58
2022/07/08 07:18:10;;;;;;;2.80;0.90;;;;;;;;;;5013162;28;20201;-58
2022/07/08 07:20:38;;;;;;;1.20;1.13;;;;;;;;;;5012699;28;20721;-56
2022/07/08 07:23:07;;;;;;;1.30;1.30;;;;;;;;;;5009848;28;20228;-57
2022/07/08 07:25:35;;;;;;;3.40;1.30;;;;;;;;;;5012083;28;20200;-55
2022/07/08 07:28:04;;;;;;;2.30;1.27;;;;;;;;;;5011610;28;20208;-55
2022/07/08 07:30:32;;;;;;;2.00;1.30;;;;;;;;;;5011615;28;20257;-55
2022/07/08 07:33:00;;;;;;;16.17;1.80;;;;;;;;;;5013305;28;20722;-57
2022/07/08 07:35:28;;;;;;;4.73;1.23;;;;;;;;;;5012100;28;20236;-58
2022/07/08 07:37:56;;;;;;;1.37;1.20;;;;;;;;;;5011649;28;20241;-58
2022/07/08 07:40:25;;;;;;;3.43;1.20;;;;;;;;;;5011599;28;20235;-58
2022/07/08 07:42:53;;;;;;;2.17;1.20;;;;;;;;;;5019217;28;20218;-58
2022/07/08 07:45:25;;;;;;;1.27;1.17;;;;;;;;;;5004827;28;20210;-58
2022/07/08 07:47:53;;;;;;;2.93;1.20;;;;;;;;;;5000158;28;20208;-58
2022/07/08 07:50:21;;;;;;;2.00;1.30;;;;;;;;;;5001528;28;20261;-59
2022/07/08 07:52:49;;;;;;;3.27;1.27;;;;;;;;;;5010744;28;20213;-58
2022/07/08 07:55:17;;;;;;;3.90;1.83;;;;;;;;;;5013890;28;20207;-57
2022/07/08 07:57:48;;;;;;;4.37;1.53;;;;;;;;;;5015077;28;20215;-56
2022/07/08 08:00:16;;;;;;;4.93;1.40;;;;;;;;;;5019245;28;20707;-58
2022/07/08 08:02:45;;;;;;;1.20;1.10;;;;;;;;;;5018302;28;20237;-58
2022/07/08 08:05:13;;;;;;;2.83;1.10;;;;;;;;;;5013678;28;20200;-58
2022/07/08 08:07:41;;;;;;;3.17;1.37;;;;;;;;;;5009895;28;20617;-58
2022/07/08 08:10:11;;;;;;;4.00;1.40;;;;;;;;;;5011500;28;20588;-58
2022/07/08 08:12:39;;;;;;;3.60;2.03;;;;;;;;;;5013802;28;20200;-59
2022/07/08 08:15:09;;;;;;;4.47;1.43;;;;;;;;;;5015050;28;20211;-58
2022/07/08 08:17:37;;;;;;;2.77;1.63;;;;;;;;;;5016918;28;20672;-58
2022/07/08 08:20:06;;;;;;;1.27;1.07;;;;;;;;;;5012211;28;20540;-57
2022/07/08 08:22:34;;;;;;;1.40;1.30;;;;;;;;;;5010624;28;20201;-57
2022/07/08 08:25:17;;;;;;;1.93;1.33;;;;;;;;;;5011921;28;20262;-58
2022/07/08 08:27:45;;;;;;;2.70;1.30;;;;;;;;;;5010039;28;20260;-58
2022/07/08 08:30:15;;;;;;;3.60;1.20;;;;;;;;;;5010255;28;20228;-58
2022/07/08 08:32:43;;;;;;;2.20;1.27;;;;;;;;;;5016338;28;20636;-59
2022/07/08 08:35:11;;;;;;;6.07;1.50;;;;;;;;;;5020485;28;20231;-58
2022/07/08 08:37:39;;;;;;;3.03;1.03;;;;;;;;;;5014516;28;20239;-58
2022/07/08 08:40:08;;;;;;;2.63;1.30;;;;;;;;;;5015047;28;20199;-58
2022/07/08 08:42:37;;;;;;;1.50;1.40;;;;;;;;;;5012957;28;20246;-59
2022/07/08 08:45:05;;;;;;;5.60;1.40;;;;;;;;;;5014402;28;20252;-58
2022/07/08 08:47:36;;;;;;;2.93;1.27;;;;;;;;;;5014047;28;20687;-59
2022/07/08 08:52:49;;;;;;;3.03;1.13;;;;;;;;;;5012205;28;20205;-58
2022/07/08 08:55:22;;;;;;;2.13;1.37;;;;;;;;;;5013113;28;20835;-58
2022/07/08 08:57:51;;;;;;;3.77;1.57;;;;;;;;;;5013239;28;20207;-59
2022/07/08 09:00:20;;;;;;;1.93;1.30;;;;;;;;;;5014744;28;20267;-58
2022/07/08 09:02:49;;;;;;;3.77;1.27;;;;;;;;;;5008384;28;20214;-59
2022/07/08 09:05:17;;;;;;;2.30;1.00;;;;;;;;;;4997378;28;20204;-58
2022/07/08 09:07:46;;;;;;;2.47;1.37;;;;;;;;;;5009370;28;20209;-59
2022/07/08 09:10:14;;;;;;;3.67;1.30;;;;;;;;;;5000235;28;20644;-59
2022/07/08 09:12:59;;;;;;;2.50;1.50;;;;;;;;;;4998472;28;20213;-59
2022/07/08 09:15:31;;;;;;;2.70;1.30;;;;;;;;;;5006119;28;20586;-59
2022/07/08 09:18:02;;;;;;;2.23;1.37;;;;;;;;;;5014948;28;20256;-59
2022/07/08 09:20:40;;;;;;;3.47;1.30;;;;;;;;;;5009303;28;20209;-59
2022/07/08 09:23:15;;;;;;;1.83;1.23;;;;;;;;;;5013057;28;20276;-59
2022/07/08 09:25:45;;;;;;;2.90;1.20;;;;;;;;;;5008850;28;20197;-59
2022/07/08 09:28:13;;;;;;;3.03;1.37;;;;;;;;;;5010979;28;20224;-58
2022/07/08 09:30:44;;;;;;;2.57;1.23;;;;;;;;;;5008630;28;20643;-59
2022/07/08 09:33:13;;;;;;;3.77;1.30;;;;;;;;;;5008886;28;20265;-59
2022/07/08 09:35:43;;;;;;;1.70;1.20;;;;;;;;;;5012898;28;20248;-59
2022/07/08 09:38:11;;;;;;;0.90;0.90;;;;;;;;;;5010608;28;20209;-59
2022/07/08 09:40:39;;;;;;;1.10;1.00;;;;;;;;;;5016281;28;20199;-59
2022/07/08 09:43:12;;;;;;;2.60;1.20;;;;;;;;;;5011186;28;23086;-59
2022/07/08 09:45:40;;;;;;;1.70;1.40;;;;;;;;;;5012460;28;20206;-59
2022/07/08 09:48:09;;;;;;;2.17;1.43;;;;;;;;;;5002402;28;20242;-59
2022/07/08 09:50:40;;;;;;;4.80;1.50;;;;;;;;;;5001621;28;20235;-59
2022/07/08 09:53:28;;;;;;;2.17;1.30;;;;;;;;;;5018680;28;20704;-59
2022/07/08 09:55:58;;;;;;;1.97;1.20;;;;;;;;;;5016341;28;20736;-59
2022/07/08 09:58:27;;;;;;;1.33;1.20;;;;;;;;;;5003705;28;20232;-59
2022/07/08 10:00:56;;;;;;;1.40;1.20;;;;;;;;;;5008755;28;20204;-59
2022/07/08 10:03:25;;;;;;;2.50;1.10;;;;;;;;;;5011415;28;20229;-60
2022/07/08 10:05:55;;;;;;;2.33;1.17;;;;;;;;;;5016178;28;20663;-60
2022/07/08 10:08:23;;;;;;;2.20;1.13;;;;;;;;;;5013420;28;20238;-60
2022/07/08 10:10:53;;;;;;;3.03;1.07;;;;;;;;;;5008716;28;20331;-60
2022/07/08 10:13:21;;;;;;;1.80;1.03;;;;;;;;;;5009567;28;20288;-59
2022/07/08 10:15:49;;;;;;;1.23;1.20;;;;;;;;;;5017565;28;20208;-60
2022/07/08 10:18:19;;;;;;;1.83;0.83;;;;;;;;;;5016711;28;20212;-60
2022/07/08 10:20:49;;;;;;;2.80;1.30;;;;;;;;;;5016979;28;20711;-60
2022/07/08 10:23:22;;;;;;;2.83;1.13;;;;;;;;;;5016057;28;20734;-60
2022/07/08 10:25:51;;;;;;;1.17;0.90;;;;;;;;;;5017805;28;20244;-59
2022/07/08 10:28:19;;;;;;;1.30;1.07;;;;;;;;;;5017459;28;20236;-60
2022/07/08 10:30:49;;;;;;;1.97;1.10;;;;;;;;;;5017296;28;20210;-60
2022/07/08 10:33:20;;;;;;;2.63;0.83;;;;;;;;;;5009667;28;20690;-60
2022/07/08 10:36:05;;;;;;;0.80;0.80;;;;;;;;;;5008510;28;20574;-60
2022/07/08 10:38:39;;;;;;;2.47;1.03;;;;;;;;;;5008825;28;20574;-60
2022/07/08 10:41:08;;;;;;;1.00;1.00;;;;;;;;;;5008401;28;20200;-60
2022/07/08 10:43:36;;;;;;;1.83;0.90;;;;;;;;;;5008348;28;20278;-60
2022/07/08 10:46:05;;;;;;;1.87;1.00;;;;;;;;;;5013046;28;20207;-60
2022/07/08 10:48:52;;;;;;;0.90;0.90;;;;;;;;;;5003308;28;20212;-60
2022/07/08 10:51:39;;;;;;;5.17;3.50;;;;;;;;;;4997259;28;20240;-60
2022/07/08 10:54:24;;;;;;;1.13;0.80;;;;;;;;;;4996811;28;20717;-60
2022/07/08 10:56:53;;;;;;;1.13;0.87;;;;;;;;;;4996950;28;20211;-60
2022/07/08 10:59:22;;;;;;;2.40;1.07;;;;;;;;;;4996988;28;20625;-60
2022/07/08 11:01:51;;;;;;;3.70;2.13;;;;;;;;;;4997917;28;20669;-60
2022/07/08 11:04:21;;;;;;;1.07;0.90;;;;;;;;;;5000779;28;20231;-60
2022/07/08 11:06:49;;;;;;;3.83;1.00;;;;;;;;;;5000641;28;20576;-60
2022/07/08 11:09:18;;;;;;;2.37;1.43;;;;;;;;;;4999069;28;20206;-60
2022/07/08 11:11:46;;;;;;;1.27;1.17;;;;;;;;;;4999035;28;20273;-60
2022/07/08 11:14:14;;;;;;;1.03;0.70;;;;;;;;;;4998549;28;20808;-60
2022/07/08 11:16:42;;;;;;;3.13;1.20;;;;;;;;;;4998590;28;20585;-60
2022/07/08 11:19:11;;;;;;;3.10;1.07;;;;;;;;;;4998972;28;20214;-60
2022/07/08 11:21:39;;;;;;;0.70;0.70;;;;;;;;;;4999117;28;20202;-60
2022/07/08 11:24:28;;;;;;;2.13;1.03;;;;;;;;;;5023637;28;20245;-60
2022/07/08 11:26:57;;;;;;;2.20;1.00;;;;;;;;;;5000838;28;20259;-60
2022/07/08 11:29:25;;;;;;;1.80;0.80;;;;;;;;;;5000813;28;20330;-60
2022/07/08 11:31:56;;;;;;;4.43;1.10;;;;;;;;;;5010193;28;20226;-60
2022/07/08 11:34:24;;;;;;;3.10;1.17;;;;;;;;;;5011613;28;20222;-60
2022/07/08 11:36:55;;;;;;;0.90;0.90;;;;;;;;;;5000419;28;20246;-60
2022/07/08 11:39:24;;;;;;;2.77;1.10;;;;;;;;;;5000380;28;20241;-60
2022/07/08 11:41:53;;;;;;;1.60;0.93;;;;;;;;;;5005490;28;20239;-61
2022/07/08 11:44:22;;;;;;;2.40;1.17;;;;;;;;;;5012493;28;20229;-60
2022/07/08 11:46:51;;;;;;;3.03;0.90;;;;;;;;;;5014830;28;20201;-59
2022/07/08 11:49:20;;;;;;;2.33;0.80;;;;;;;;;;5015842;28;20201;-60
2022/07/08 11:51:49;;;;;;;1.00;0.90;;;;;;;;;;5016301;28;20252;-60
2022/07/08 11:54:19;;;;;;;1.00;0.90;;;;;;;;;;5013363;28;20222;-59
2022/07/08 11:56:47;;;;;;;2.63;1.50;;;;;;;;;;5011415;28;20635;-60
2022/07/08 11:59:22;;;;;;;1.80;1.17;;;;;;;;;;5009232;28;20274;-60
2022/07/08 12:01:51;;;;;;;1.00;0.90;;;;;;;;;;5008369;28;20209;-60
2022/07/08 12:04:19;;;;;;;1.17;0.97;;;;;;;;;;5012049;28;20226;-60
2022/07/08 12:06:48;;;;;;;3.37;1.17;;;;;;;;;;4999318;28;20207;-60
2022/07/08 12:09:16;;;;;;;2.83;0.80;;;;;;;;;;4999399;28;20209;-60
2022/07/08 12:11:45;;;;;;;3.07;0.93;;;;;;;;;;4999389;28;20278;-60
2022/07/08 12:14:13;;;;;;;0.97;0.90;;;;;;;;;;4996605;28;20289;-60
2022/07/08 12:16:44;;;;;;;2.83;1.53;;;;;;;;;;4998131;28;20208;-60
2022/07/08 12:19:25;;;;;;;2.80;0.97;;;;;;;;;;5004798;28;20277;-59
2022/07/08 12:21:54;;;;;;;1.33;1.20;;;;;;;;;;5017512;28;20207;-59
2022/07/08 12:24:26;;;;;;;3.57;1.00;;;;;;;;;;5011066;28;20710;-59
2022/07/08 12:26:57;;;;;;;1.87;1.20;;;;;;;;;;5009149;28;20630;-59
2022/07/08 12:29:26;;;;;;;2.90;0.90;;;;;;;;;;5010540;28;20208;-59
2022/07/08 12:31:55;;;;;;;2.10;0.93;;;;;;;;;;5010204;28;20207;-59
2022/07/08 12:34:24;;;;;;;1.07;0.90;;;;;;;;;;5016262;28;20540;-59
2022/07/08 12:36:52;;;;;;;0.63;0.63;;;;;;;;;;5014497;28;20247;-59
2022/07/08 12:39:21;;;;;;;4.30;1.00;;;;;;;;;;5012565;28;20230;-59
2022/07/08 12:42:00;;;;;;;3.47;1.00;;;;;;;;;;5015284;28;20577;-58
2022/07/08 12:44:29;;;;;;;2.60;0.90;;;;;;;;;;5012832;28;20241;-58
2022/07/08 12:46:58;;;;;;;2.07;0.80;;;;;;;;;;5013482;28;20239;-58
2022/07/08 12:49:27;;;;;;;2.23;1.10;;;;;;;;;;5018999;28;20268;-58
2022/07/08 12:51:55;;;;;;;2.90;1.10;;;;;;;;;;5018514;28;20246;-58
2022/07/08 12:54:26;;;;;;;1.37;1.10;;;;;;;;;;5011710;28;20280;-58
2022/07/08 12:56:55;;;;;;;5.03;1.00;;;;;;;;;;5011490;28;20330;-58
2022/07/08 12:59:23;;;;;;;1.73;0.87;;;;;;;;;;5011650;28;20235;-58
2022/07/08 13:01:51;;;;;;;2.73;1.00;;;;;;;;;;5010463;28;20201;-58
2022/07/08 13:04:21;;;;;;;1.30;0.93;;;;;;;;;;5010615;28;20303;-58
2022/07/08 13:06:49;;;;;;;0.80;0.80;;;;;;;;;;5011315;28;20211;-58
2022/07/08 13:09:17;;;;;;;1.63;0.90;;;;;;;;;;5009837;28;20232;-58
2022/07/08 13:11:47;;;;;;;1.17;1.03;;;;;;;;;;5010586;28;20676;-58
2022/07/08 13:14:15;;;;;;;2.83;1.17;;;;;;;;;;5007406;28;20279;-58
2022/07/08 13:16:44;;;;;;;2.47;1.00;;;;;;;;;;5010819;28;20673;-58
2022/07/08 13:19:11;;;;;;;5.50;0.83;;;;;;;;;;5001628;28;20812;-58
2022/07/08 13:21:41;;;;;;;0.73;0.73;;;;;;;;;;5009849;28;20206;-59
2022/07/08 13:24:09;;;;;;;2.77;1.10;;;;;;;;;;5009671;28;20701;-59
2022/07/08 13:26:37;;;;;;;2.63;1.00;;;;;;;;;;5010338;28;20199;-58
2022/07/08 13:29:05;;;;;;;3.40;1.03;;;;;;;;;;5011170;28;20204;-59
2022/07/08 13:31:33;;;;;;;0.83;0.80;;;;;;;;;;5009710;28;20208;-59
2022/07/08 13:34:01;;;;;;;1.10;1.00;;;;;;;;;;5011624;28;20228;-59
2022/07/08 13:36:30;;;;;;;1.00;0.90;;;;;;;;;;5003511;28;20564;-59
2022/07/08 13:38:59;;;;;;;2.53;0.90;;;;;;;;;;5008379;28;20234;-59
2022/07/08 13:41:29;;;;;;;2.60;1.10;;;;;;;;;;5011601;28;20268;-59
2022/07/08 13:43:58;;;;;;;2.10;1.10;;;;;;;;;;5006765;28;20227;-59
2022/07/08 13:46:26;;;;;;;0.80;0.80;;;;;;;;;;4998247;28;20235;-60
2022/07/08 13:48:54;;;;;;;0.87;0.87;;;;;;;;;;4997718;28;20226;-60
2022/07/08 13:51:22;;;;;;;1.83;0.77;;;;;;;;;;5001903;28;20757;-60
2022/07/08 13:53:50;;;;;;;2.43;0.90;;;;;;;;;;4997465;28;20382;-60
2022/07/08 13:56:20;;;;;;;2.50;0.93;;;;;;;;;;4998157;28;20288;-60
2022/07/08 13:58:48;;;;;;;1.53;1.03;;;;;;;;;;4997783;28;20607;-60
2022/07/08 14:01:16;;;;;;;1.00;0.90;;;;;;;;;;4998148;28;20227;-60
2022/07/08 14:03:45;;;;;;;1.43;0.77;;;;;;;;;;4997919;28;20288;-60
2022/07/08 14:06:13;;;;;;;2.43;1.13;;;;;;;;;;4998029;28;20212;-60
2022/07/08 14:08:41;;;;;;;1.10;0.73;;;;;;;;;;4997873;28;20211;-60
2022/07/08 14:11:09;;;;;;;3.10;0.93;;;;;;;;;;4997662;28;20252;-60
2022/07/08 14:13:38;;;;;;;2.97;1.10;;;;;;;;;;4997071;28;20241;-60
2022/07/08 14:16:07;;;;;;;7.13;1.10;;;;;;;;;;4997227;28;20219;-60
2022/07/08 14:18:36;;;;;;;2.63;1.07;;;;;;;;;;4997391;28;20291;-60
2022/07/08 14:21:05;;;;;;;1.27;1.00;;;;;;;;;;5003376;28;20214;-60
2022/07/08 14:23:33;;;;;;;3.03;1.10;;;;;;;;;;5010861;28;20267;-60
2022/07/08 14:26:01;;;;;;;2.07;1.00;;;;;;;;;;4997360;28;20218;-61
2022/07/08 14:28:29;;;;;;;1.53;0.90;;;;;;;;;;4997623;28;20212;-60
2022/07/08 14:30:59;;;;;;;1.40;1.30;;;;;;;;;;4999751;28;20208;-60
2022/07/08 14:33:27;;;;;;;2.33;1.30;;;;;;;;;;5008522;28;20235;-60
2022/07/08 14:35:55;;;;;;;1.70;0.97;;;;;;;;;;4997954;28;20219;-60
2022/07/08 14:38:23;;;;;;;4.03;1.10;;;;;;;;;;5000469;28;20674;-60
2022/07/08 14:40:51;;;;;;;3.43;1.30;;;;;;;;;;5001350;28;20618;-60
2022/07/08 14:43:19;;;;;;;0.90;0.90;;;;;;;;;;5001240;28;20227;-60
2022/07/08 14:45:48;;;;;;;1.30;0.90;;;;;;;;;;5001582;28;20238;-60
2022/07/08 14:48:18;;;;;;;2.20;1.00;;;;;;;;;;5001338;28;20577;-60
2022/07/08 14:50:46;;;;;;;1.43;0.80;;;;;;;;;;5001412;28;20216;-60
2022/07/08 14:53:14;;;;;;;1.00;0.90;;;;;;;;;;5000995;28;20236;-60
2022/07/08 14:55:42;;;;;;;2.53;1.10;;;;;;;;;;5001061;28;20636;-60
2022/07/08 14:58:10;;;;;;;1.33;0.70;;;;;;;;;;5001028;28;20275;-60
2022/07/08 15:00:38;;;;;;;1.33;1.00;;;;;;;;;;5000996;28;20242;-60